Time;durP1;ratioP1;P1;durP2;ratioP2;P2;SDS_P1;SDS_P2;PMS_P1;PMS_P2;Temp;Humidity;BMP_temperature;BMP_pressure;BME280_temperature;BME280_humidity;BME280_pressure;Samples;Min_cycle;Max_cycle;Signal;HPM_P1;HPM_P2
2023/07/29 00:00:45;;;;;;;7.13;6.60;;;19.30;99.90;;;;;;5023342;28;20223;-64
2023/07/29 00:03:11;;;;;;;9.03;7.03;;;19.30;99.90;;;;;;5014839;28;20220;-63
2023/07/29 00:05:37;;;;;;;10.17;7.27;;;19.30;99.90;;;;;;5022527;28;20199;-63
2023/07/29 00:08:03;;;;;;;6.63;6.03;;;19.30;99.90;;;;;;5016420;28;20223;-64
2023/07/29 00:10:30;;;;;;;7.40;6.70;;;19.30;99.90;;;;;;5021636;28;20218;-64
2023/07/29 00:12:56;;;;;;;7.20;6.60;;;19.30;99.90;;;;;;5014565;28;20286;-65
2023/07/29 00:15:21;;;;;;;9.80;6.97;;;19.30;99.90;;;;;;5009278;28;20275;-66
2023/07/29 00:17:47;;;;;;;7.60;6.73;;;19.30;99.90;;;;;;5022797;28;20209;-64
2023/07/29 00:20:12;;;;;;;8.07;6.63;;;19.20;99.90;;;;;;5021745;28;20219;-64
2023/07/29 00:22:38;;;;;;;7.87;7.17;;;19.20;99.90;;;;;;5022864;28;20800;-65
2023/07/29 00:25:04;;;;;;;7.70;6.80;;;19.20;99.90;;;;;;5021527;28;20205;-65
2023/07/29 00:27:29;;;;;;;9.20;8.40;;;19.20;99.90;;;;;;5021784;28;20258;-65
2023/07/29 00:29:55;;;;;;;8.60;7.90;;;19.20;99.90;;;;;;5021965;28;20212;-66
2023/07/29 00:32:20;;;;;;;10.07;7.37;;;19.20;99.90;;;;;;5022080;28;20928;-72
2023/07/29 00:34:46;;;;;;;8.87;8.07;;;19.20;99.90;;;;;;5018955;28;20561;-68
2023/07/29 00:37:12;;;;;;;9.07;8.20;;;19.10;99.90;;;;;;5022955;28;20196;-65
2023/07/29 00:39:37;;;;;;;8.40;7.63;;;19.10;99.90;;;;;;5021263;28;20222;-66
2023/07/29 00:42:04;;;;;;;8.77;7.97;;;19.00;99.90;;;;;;5022485;28;20199;-65
2023/07/29 00:44:31;;;;;;;8.07;7.37;;;19.00;99.90;;;;;;5018246;28;20195;-66
2023/07/29 00:46:58;;;;;;;8.40;7.70;;;19.00;99.90;;;;;;5021662;28;20374;-66
2023/07/29 00:49:24;;;;;;;8.10;7.30;;;19.00;99.90;;;;;;5020846;28;20206;-65
2023/07/29 00:51:50;;;;;;;7.93;7.23;;;19.00;99.90;;;;;;5021399;28;20199;-65
2023/07/29 00:54:16;;;;;;;9.97;7.87;;;19.00;99.90;;;;;;5010417;28;20984;-64
2023/07/29 00:56:42;;;;;;;8.43;7.53;;;19.00;99.90;;;;;;5021440;28;20231;-66
2023/07/29 00:59:08;;;;;;;8.17;7.37;;;19.00;99.90;;;;;;5020524;28;20306;-65
2023/07/29 01:01:33;;;;;;;8.03;7.33;;;19.00;99.90;;;;;;5023134;28;20308;-65
2023/07/29 01:03:59;;;;;;;8.47;7.80;;;18.90;99.90;;;;;;5019287;28;20278;-65
2023/07/29 01:06:50;;;;;;;7.67;6.90;;;18.90;99.90;;;;;;5022725;28;20187;-68
2023/07/29 01:09:34;;;;;;;8.30;7.60;;;18.90;99.90;;;;;;5021119;28;20281;-71
2023/07/29 01:12:12;;;;;;;8.77;8.07;;;18.90;99.90;;;;;;5021728;28;20198;-71
2023/07/29 01:15:11;;;;;;;8.30;7.47;;;18.90;99.90;;;;;;5014573;28;20211;-72
2023/07/29 01:17:42;;;;;;;8.47;7.67;;;18.80;99.90;;;;;;5016714;28;20204;-72
2023/07/29 01:20:13;;;;;;;8.73;7.80;;;18.80;99.90;;;;;;5019706;28;20502;-67
2023/07/29 01:22:39;;;;;;;7.57;6.87;;;18.80;99.90;;;;;;5014962;28;20192;-68
2023/07/29 01:25:05;;;;;;;9.17;7.50;;;18.80;99.90;;;;;;5020268;28;20206;-66
2023/07/29 01:27:31;;;;;;;9.70;7.60;;;18.80;99.90;;;;;;5022474;28;20204;-66
2023/07/29 01:29:58;;;;;;;7.93;6.60;;;18.80;99.90;;;;;;5020579;28;20211;-68
2023/07/29 01:32:35;;;;;;;9.83;7.50;;;18.80;99.90;;;;;;5006808;28;20243;-62
2023/07/29 01:35:04;;;;;;;8.97;8.17;;;18.70;99.90;;;;;;5018252;28;20202;-64
2023/07/29 01:37:34;;;;;;;8.80;7.83;;;18.70;99.90;;;;;;5022106;28;20280;-62
2023/07/29 01:40:00;;;;;;;8.30;7.60;;;18.70;99.90;;;;;;5018206;28;20227;-62
2023/07/29 01:42:26;;;;;;;8.63;7.93;;;18.70;99.90;;;;;;5021530;28;20199;-62
2023/07/29 01:44:52;;;;;;;7.33;6.67;;;18.70;99.90;;;;;;5007322;28;20199;-65
2023/07/29 01:47:17;;;;;;;8.87;7.53;;;18.70;99.90;;;;;;5021903;28;20227;-65
2023/07/29 01:49:43;;;;;;;7.90;7.27;;;18.70;99.90;;;;;;5016350;28;20218;-64
2023/07/29 01:52:09;;;;;;;7.97;7.37;;;18.60;99.90;;;;;;5018833;28;20254;-64
2023/07/29 01:54:34;;;;;;;8.43;7.63;;;18.60;99.90;;;;;;5018929;28;20203;-64
2023/07/29 01:57:00;;;;;;;9.53;7.90;;;18.60;99.90;;;;;;5003555;28;20192;-65
2023/07/29 01:59:25;;;;;;;7.43;6.73;;;18.60;99.90;;;;;;5019555;28;20702;-64
2023/07/29 02:01:51;;;;;;;11.20;7.93;;;18.60;99.90;;;;;;5019502;28;20188;-64
2023/07/29 02:04:17;;;;;;;9.37;7.93;;;18.50;99.90;;;;;;5020263;28;20794;-65
2023/07/29 02:06:43;;;;;;;8.77;7.87;;;18.60;99.90;;;;;;5015653;28;20210;-65
2023/07/29 02:09:09;;;;;;;9.67;8.67;;;18.60;99.90;;;;;;5018864;28;20212;-63
2023/07/29 02:11:34;;;;;;;10.70;9.50;;;18.50;99.90;;;;;;5021997;28;20327;-63
2023/07/29 02:14:00;;;;;;;12.00;7.47;;;18.50;99.90;;;;;;5019598;28;20290;-63
2023/07/29 02:16:25;;;;;;;9.10;8.30;;;18.50;99.90;;;;;;5021636;28;20565;-63
2023/07/29 02:18:51;;;;;;;9.60;8.20;;;18.50;99.90;;;;;;5019833;28;20622;-63
2023/07/29 02:21:16;;;;;;;7.93;7.33;;;18.50;99.90;;;;;;5020954;28;20194;-65
2023/07/29 02:23:42;;;;;;;8.63;7.83;;;18.50;99.90;;;;;;5019893;28;20195;-63
2023/07/29 02:26:07;;;;;;;8.60;7.90;;;18.50;99.90;;;;;;5025802;28;20901;-63
2023/07/29 02:28:33;;;;;;;8.33;7.53;;;18.50;99.90;;;;;;5024142;28;20271;-64
2023/07/29 02:31:22;;;;;;;8.50;7.80;;;18.40;99.90;;;;;;5013386;28;20423;-65
2023/07/29 02:33:47;;;;;;;9.57;8.20;;;18.40;99.90;;;;;;5021873;28;20195;-64
2023/07/29 02:36:13;;;;;;;9.17;8.27;;;18.40;99.90;;;;;;5026444;28;20190;-64
2023/07/29 02:38:40;;;;;;;8.60;7.80;;;18.40;99.90;;;;;;5012049;28;20283;-64
2023/07/29 02:41:06;;;;;;;8.00;7.20;;;18.40;99.90;;;;;;5025061;28;20231;-64
2023/07/29 02:43:31;;;;;;;12.67;9.17;;;18.40;99.90;;;;;;5019330;28;20203;-64
2023/07/29 02:45:57;;;;;;;8.53;7.83;;;18.40;99.90;;;;;;5021465;28;20187;-65
2023/07/29 02:48:22;;;;;;;8.63;7.67;;;18.40;99.90;;;;;;5023926;28;20664;-65
2023/07/29 02:50:48;;;;;;;8.67;7.83;;;18.30;99.90;;;;;;5025460;28;20183;-64
2023/07/29 02:53:13;;;;;;;8.33;7.63;;;18.40;99.90;;;;;;5023371;28;20203;-64
2023/07/29 02:55:42;;;;;;;10.07;8.50;;;18.40;99.90;;;;;;5025359;28;20325;-67
2023/07/29 02:58:07;;;;;;;9.53;8.73;;;18.30;99.90;;;;;;5016234;28;20196;-68
2023/07/29 03:00:33;;;;;;;9.43;8.03;;;18.30;99.90;;;;;;5025349;28;20219;-64
2023/07/29 03:02:59;;;;;;;8.80;8.10;;;18.30;99.90;;;;;;5023074;28;20760;-64
2023/07/29 03:05:28;;;;;;;10.33;8.53;;;18.30;99.90;;;;;;5020332;28;20203;-64
2023/07/29 03:07:53;;;;;;;9.03;8.23;;;18.30;99.90;;;;;;5023638;28;20227;-64
2023/07/29 03:10:19;;;;;;;8.37;7.67;;;18.30;99.90;;;;;;5025215;28;20732;-65
2023/07/29 03:12:45;;;;;;;8.77;7.87;;;18.30;99.90;;;;;;5021808;28;20204;-66
2023/07/29 03:21:07;;;;;;;8.53;7.77;;;18.20;99.90;;;;;;5024827;23;20240;-65
2023/07/29 03:23:33;;;;;;;8.70;7.90;;;18.20;99.90;;;;;;4989079;28;20561;-65
2023/07/29 03:26:00;;;;;;;9.47;8.67;;;18.20;99.90;;;;;;4994924;28;20735;-65
2023/07/29 03:28:28;;;;;;;9.00;8.10;;;18.20;99.90;;;;;;4988970;28;20231;-65
2023/07/29 03:30:54;;;;;;;8.37;7.67;;;18.20;99.90;;;;;;4995236;28;20185;-66
2023/07/29 03:33:20;;;;;;;8.23;7.47;;;18.20;99.90;;;;;;4992391;28;20279;-65
2023/07/29 03:35:45;;;;;;;8.03;7.33;;;18.20;99.90;;;;;;4998311;28;20334;-65
2023/07/29 03:38:11;;;;;;;8.17;7.30;;;18.20;99.90;;;;;;4996576;28;20199;-65
2023/07/29 03:40:38;;;;;;;8.83;8.03;;;18.20;99.90;;;;;;4998633;28;20225;-65
2023/07/29 03:43:04;;;;;;;9.73;7.60;;;18.20;99.90;;;;;;4997107;28;20964;-66
2023/07/29 03:45:29;;;;;;;9.03;8.13;;;18.10;99.90;;;;;;5000123;28;20215;-66
2023/07/29 03:47:55;;;;;;;9.10;8.27;;;18.10;99.90;;;;;;4996698;28;20199;-63
2023/07/29 03:50:20;;;;;;;9.33;8.23;;;18.00;99.90;;;;;;4996739;28;21164;-63
2023/07/29 03:52:46;;;;;;;8.53;7.80;;;18.00;99.90;;;;;;4993815;28;20193;-67
2023/07/29 03:55:11;;;;;;;8.67;7.23;;;18.10;99.90;;;;;;5001743;28;20204;-66
2023/07/29 03:57:37;;;;;;;8.43;7.73;;;18.10;99.90;;;;;;4996922;28;20204;-65
2023/07/29 04:00:03;;;;;;;8.80;7.90;;;18.10;99.90;;;;;;5001073;28;20278;-65
2023/07/29 04:02:29;;;;;;;7.30;6.60;;;18.10;99.90;;;;;;4992413;28;20804;-65
2023/07/29 04:04:54;;;;;;;8.00;7.30;;;18.10;99.90;;;;;;4995106;28;20214;-62
2023/07/29 04:07:20;;;;;;;9.53;7.30;;;18.10;99.90;;;;;;4997486;28;20204;-71
2023/07/29 04:09:45;;;;;;;7.83;7.13;;;18.20;99.90;;;;;;4990729;28;20227;-66
2023/07/29 04:12:11;;;;;;;7.90;7.30;;;18.20;99.90;;;;;;4994591;28;20205;-63
2023/07/29 04:14:36;;;;;;;8.53;7.70;;;18.20;99.90;;;;;;4988586;28;20282;-65
2023/07/29 04:17:02;;;;;;;8.47;7.77;;;18.20;99.90;;;;;;4996060;28;20255;-69
2023/07/29 04:19:27;;;;;;;8.13;7.37;;;18.20;99.90;;;;;;4979553;28;20344;-63
2023/07/29 04:21:53;;;;;;;10.10;9.03;;;18.20;99.90;;;;;;4978960;28;20690;-64
2023/07/29 04:24:20;;;;;;;8.70;8.00;;;18.20;99.90;;;;;;4975518;28;20218;-64
2023/07/29 04:26:45;;;;;;;8.87;7.90;;;18.20;99.90;;;;;;4978536;28;20192;-63
2023/07/29 04:29:11;;;;;;;8.47;7.77;;;18.20;99.90;;;;;;4974145;28;20878;-64
2023/07/29 04:31:37;;;;;;;8.60;7.80;;;18.20;99.90;;;;;;4976729;28;20194;-66
2023/07/29 04:34:02;;;;;;;8.20;7.53;;;18.20;99.90;;;;;;4969726;28;20209;-63
2023/07/29 04:36:28;;;;;;;8.50;7.70;;;18.20;99.90;;;;;;4976117;28;20193;-63
2023/07/29 04:38:53;;;;;;;8.33;7.37;;;18.30;99.90;;;;;;4984725;28;20216;-66
2023/07/29 04:41:19;;;;;;;8.47;7.67;;;18.40;99.90;;;;;;4981777;28;20218;-65
2023/07/29 04:43:44;;;;;;;7.33;6.73;;;18.40;99.90;;;;;;4969733;28;20213;-64
2023/07/29 04:46:10;;;;;;;8.20;7.40;;;18.40;99.90;;;;;;4977281;28;20221;-64
2023/07/29 04:48:35;;;;;;;8.03;7.43;;;18.50;99.90;;;;;;4970056;28;20200;-64
2023/07/29 04:51:00;;;;;;;7.97;7.27;;;18.60;99.90;;;;;;4976222;28;20185;-64
2023/07/29 04:53:26;;;;;;;8.00;7.30;;;18.60;99.90;;;;;;4972691;28;20228;-66
2023/07/29 04:55:51;;;;;;;8.17;7.33;;;18.60;99.90;;;;;;4974892;28;20190;-67
2023/07/29 04:58:17;;;;;;;8.03;7.43;;;18.60;99.90;;;;;;4971715;28;20202;-64
2023/07/29 05:00:42;;;;;;;6.97;6.47;;;18.60;99.90;;;;;;4973159;28;20233;-66
2023/07/29 05:03:08;;;;;;;8.60;7.40;;;18.50;99.90;;;;;;4972726;28;20237;-65
2023/07/29 05:05:33;;;;;;;8.00;7.13;;;18.60;99.90;;;;;;4975896;28;20217;-64
2023/07/29 05:07:59;;;;;;;7.63;6.93;;;18.70;99.90;;;;;;4975910;28;20210;-69
2023/07/29 05:10:24;;;;;;;8.60;7.67;;;18.70;99.90;;;;;;4978716;28;20224;-67
2023/07/29 05:12:50;;;;;;;7.53;6.83;;;18.70;99.90;;;;;;4975604;28;20200;-68
2023/07/29 05:15:16;;;;;;;8.50;7.13;;;18.80;99.90;;;;;;4979969;28;20208;-62
2023/07/29 05:17:41;;;;;;;8.00;7.40;;;18.80;99.90;;;;;;4971352;28;20201;-66
2023/07/29 05:20:07;;;;;;;7.17;6.57;;;18.80;99.90;;;;;;4976826;28;20234;-73
2023/07/29 05:22:33;;;;;;;7.03;6.43;;;18.80;99.90;;;;;;4975569;28;20208;-71
2023/07/29 05:24:58;;;;;;;7.43;6.83;;;18.60;99.90;;;;;;4970448;28;20755;-72
2023/07/29 05:27:24;;;;;;;7.90;7.10;;;18.70;99.90;;;;;;4975575;28;20284;-72
2023/07/29 05:29:49;;;;;;;6.97;6.37;;;18.80;99.90;;;;;;4973411;28;20206;-72
2023/07/29 05:32:15;;;;;;;7.27;6.67;;;18.80;99.90;;;;;;4980228;28;20196;-73
2023/07/29 05:34:40;;;;;;;7.57;6.80;;;18.90;99.90;;;;;;4979959;28;20208;-74
2023/07/29 05:37:06;;;;;;;8.03;7.27;;;19.00;99.90;;;;;;4974645;28;20599;-74
2023/07/29 05:39:33;;;;;;;7.27;6.67;;;19.10;99.90;;;;;;4862435;23;20248;-74
2023/07/29 05:41:58;;;;;;;8.43;7.73;;;19.10;99.90;;;;;;5037060;28;20226;-72
2023/07/29 05:44:23;;;;;;;7.40;6.73;;;19.10;99.90;;;;;;5029406;28;21010;-74
2023/07/29 05:46:49;;;;;;;8.23;7.37;;;19.10;99.90;;;;;;5040078;28;20198;-67
2023/07/29 05:49:14;;;;;;;7.83;7.23;;;19.10;99.90;;;;;;5031581;28;20205;-66
2023/07/29 05:51:40;;;;;;;7.37;6.63;;;19.10;99.90;;;;;;5041372;28;20261;-74
2023/07/29 05:54:05;;;;;;;10.10;8.53;;;19.10;99.90;;;;;;5030467;28;20671;-76
2023/07/29 05:56:31;;;;;;;7.90;7.20;;;19.10;99.90;;;;;;5035204;28;20200;-72
2023/07/29 05:58:57;;;;;;;9.40;8.60;;;19.10;99.90;;;;;;5033842;28;20257;-66
2023/07/29 06:01:22;;;;;;;8.83;7.77;;;19.10;99.90;;;;;;5030967;28;20326;-66
2023/07/29 06:03:48;;;;;;;8.33;7.53;;;19.10;99.90;;;;;;5022631;28;20215;-65
2023/07/29 06:06:13;;;;;;;8.30;7.50;;;19.20;99.90;;;;;;5035246;28;20262;-65
2023/07/29 06:08:39;;;;;;;8.37;7.57;;;19.20;99.90;;;;;;5029059;28;20198;-67
2023/07/29 06:11:06;;;;;;;7.90;7.20;;;19.20;99.90;;;;;;5035838;28;20183;-65
2023/07/29 06:13:32;;;;;;;7.27;6.57;;;19.20;99.90;;;;;;5034514;28;20195;-65
2023/07/29 06:15:57;;;;;;;6.90;6.30;;;19.30;99.90;;;;;;5031835;28;20209;-68
2023/07/29 06:18:23;;;;;;;6.93;6.30;;;19.30;99.90;;;;;;5034129;28;20207;-64
2023/07/29 06:20:49;;;;;;;7.33;6.73;;;19.40;99.90;;;;;;5020314;28;20223;-64
2023/07/29 06:23:15;;;;;;;7.83;7.03;;;19.60;99.90;;;;;;5016903;28;20700;-64
2023/07/29 06:25:40;;;;;;;7.43;6.73;;;19.60;99.90;;;;;;5010544;28;20215;-64
2023/07/29 06:28:06;;;;;;;6.53;5.90;;;19.70;99.90;;;;;;5019073;28;20752;-65
2023/07/29 06:30:31;;;;;;;6.03;5.63;;;19.90;99.90;;;;;;5021682;28;20283;-65
2023/07/29 06:32:57;;;;;;;6.63;6.03;;;19.90;99.90;;;;;;5021557;28;20211;-65
2023/07/29 06:35:23;;;;;;;6.17;5.53;;;20.00;99.90;;;;;;5019883;28;20205;-65
2023/07/29 06:37:49;;;;;;;6.67;5.83;;;20.00;99.90;;;;;;5015020;28;20659;-70
2023/07/29 06:40:14;;;;;;;6.33;5.73;;;20.10;99.90;;;;;;5040031;23;20372;-74
2023/07/29 06:42:40;;;;;;;6.30;5.80;;;20.10;99.90;;;;;;5019736;23;20263;-74
2023/07/29 06:45:07;;;;;;;5.70;5.20;;;20.20;99.90;;;;;;4996014;28;20726;-74
2023/07/29 06:47:32;;;;;;;6.40;5.87;;;20.30;99.90;;;;;;4997023;28;20284;-74
2023/07/29 06:49:58;;;;;;;5.90;5.40;;;20.30;99.90;;;;;;4988049;28;20890;-72
2023/07/29 06:52:23;;;;;;;5.97;5.30;;;20.40;99.90;;;;;;4999439;28;20206;-65
2023/07/29 06:54:49;;;;;;;6.77;6.17;;;20.50;99.90;;;;;;4994895;28;20264;-64
2023/07/29 06:57:14;;;;;;;6.50;5.67;;;20.50;99.90;;;;;;4990229;28;20198;-63
2023/07/29 06:59:39;;;;;;;4.93;4.43;;;20.50;99.90;;;;;;4984615;28;20219;-63
2023/07/29 07:02:06;;;;;;;5.63;5.20;;;20.60;99.90;;;;;;4997971;28;20233;-67
2023/07/29 07:04:32;;;;;;;6.07;5.60;;;20.60;99.90;;;;;;4989385;28;20292;-61
2023/07/29 07:06:57;;;;;;;6.70;6.10;;;20.80;99.90;;;;;;4995252;28;20220;-61
2023/07/29 07:09:23;;;;;;;5.83;5.33;;;21.00;99.90;;;;;;4990939;28;20211;-61
2023/07/29 07:11:48;;;;;;;6.13;5.60;;;20.90;99.90;;;;;;5001390;28;20942;-67
2023/07/29 07:14:14;;;;;;;5.83;5.40;;;20.90;99.90;;;;;;4999325;28;21132;-68
2023/07/29 07:16:40;;;;;;;5.70;5.27;;;20.80;99.90;;;;;;5014371;28;20252;-79
2023/07/29 07:19:06;;;;;;;6.03;5.53;;;20.60;99.90;;;;;;4997494;28;20806;-79
2023/07/29 07:21:32;;;;;;;6.73;6.10;;;20.50;99.90;;;;;;5047381;23;20319;-80
2023/07/29 07:23:58;;;;;;;6.23;5.67;;;20.60;99.90;;;;;;5006907;28;20244;-80
2023/07/29 07:26:23;;;;;;;5.60;5.20;;;20.80;99.90;;;;;;5014382;28;20197;-77
2023/07/29 07:28:49;;;;;;;6.77;6.07;;;20.80;99.90;;;;;;5015158;28;20550;-78
2023/07/29 07:31:16;;;;;;;5.83;5.33;;;20.90;99.90;;;;;;5021729;28;20213;-80
2023/07/29 07:33:41;;;;;;;6.70;6.10;;;21.00;99.90;;;;;;5015913;28;20270;-80
2023/07/29 07:36:07;;;;;;;5.90;5.40;;;21.00;99.90;;;;;;5033300;28;20323;-79
2023/07/29 07:38:32;;;;;;;6.83;5.40;;;21.10;99.90;;;;;;5040254;28;20777;-80
2023/07/29 07:40:58;;;;;;;5.47;5.07;;;21.00;99.90;;;;;;5032187;28;20276;-80
2023/07/29 07:43:24;;;;;;;5.93;5.43;;;21.00;99.90;;;;;;5021487;28;20231;-66
2023/07/29 07:45:50;;;;;;;5.47;4.93;;;21.10;99.90;;;;;;5019977;28;20207;-67
2023/07/29 07:48:16;;;;;;;8.40;5.53;;;21.30;99.90;;;;;;5025265;28;20188;-72
2023/07/29 07:50:42;;;;;;;6.17;5.67;;;21.40;99.90;;;;;;5019449;28;20333;-72
2023/07/29 07:53:08;;;;;;;5.93;5.40;;;21.40;99.90;;;;;;5021031;28;20187;-68
2023/07/29 07:55:33;;;;;;;5.33;4.93;;;21.50;99.90;;;;;;5018655;28;20285;-67
2023/07/29 07:57:59;;;;;;;5.80;4.70;;;21.60;99.90;;;;;;5018493;28;20186;-72
2023/07/29 08:00:24;;;;;;;4.67;4.37;;;21.80;99.90;;;;;;5015171;28;20250;-69
2023/07/29 08:02:50;;;;;;;6.33;5.00;;;21.80;99.90;;;;;;5021289;28;20950;-69
2023/07/29 08:05:15;;;;;;;4.77;4.47;;;21.90;99.90;;;;;;5029721;28;20225;-68
2023/07/29 08:07:41;;;;;;;4.50;4.20;;;21.90;99.90;;;;;;5030701;28;20754;-70
2023/07/29 08:10:07;;;;;;;5.53;5.13;;;21.90;99.90;;;;;;5022931;28;20232;-67
2023/07/29 08:12:32;;;;;;;4.60;4.20;;;21.90;99.90;;;;;;5040224;28;20735;-68
2023/07/29 08:14:58;;;;;;;4.73;4.30;;;22.00;99.90;;;;;;5026954;28;20217;-68
2023/07/29 08:17:24;;;;;;;4.00;3.70;;;22.00;99.90;;;;;;5031276;28;20211;-68
2023/07/29 08:19:49;;;;;;;5.60;4.17;;;22.00;99.90;;;;;;5007136;28;20298;-68
2023/07/29 08:22:16;;;;;;;4.50;3.83;;;22.10;99.90;;;;;;5006432;28;20249;-67
2023/07/29 08:24:42;;;;;;;3.97;3.67;;;22.30;99.90;;;;;;5011431;28;20200;-68
2023/07/29 08:27:08;;;;;;;6.20;4.63;;;22.50;99.90;;;;;;5014118;28;20238;-67
2023/07/29 08:29:33;;;;;;;4.83;3.43;;;22.60;99.90;;;;;;5005172;28;20210;-67
2023/07/29 08:31:59;;;;;;;3.80;3.50;;;22.70;99.90;;;;;;5014426;28;20190;-68
2023/07/29 08:34:24;;;;;;;4.57;3.90;;;22.60;99.90;;;;;;5005631;28;20244;-68
2023/07/29 08:36:50;;;;;;;3.93;3.63;;;22.60;99.90;;;;;;5018228;28;20950;-67
2023/07/29 08:39:15;;;;;;;4.80;3.90;;;22.60;99.90;;;;;;5003207;28;20207;-68
2023/07/29 08:41:53;;;;;;;4.47;3.57;;;22.50;99.90;;;;;;4993119;28;20206;-68
2023/07/29 08:44:23;;;;;;;3.60;3.30;;;22.60;99.90;;;;;;5002510;28;20218;-68
2023/07/29 08:46:50;;;;;;;3.73;3.53;;;22.50;99.90;;;;;;5013221;28;20275;-68
2023/07/29 08:49:18;;;;;;;3.93;3.63;;;22.60;99.90;;;;;;5006566;28;20195;-68
2023/07/29 08:51:50;;;;;;;4.40;4.00;;;22.60;99.90;;;;;;5002552;28;20225;-68
2023/07/29 08:54:16;;;;;;;3.27;2.97;;;22.70;99.90;;;;;;5008491;28;20669;-68
2023/07/29 08:56:42;;;;;;;3.10;2.90;;;22.60;99.90;;;;;;5011059;28;20181;-68
2023/07/29 08:59:10;;;;;;;3.70;3.27;;;22.50;99.90;;;;;;5003801;28;20625;-68
2023/07/29 09:01:35;;;;;;;3.10;2.90;;;22.40;99.90;;;;;;5007866;28;20574;-68
2023/07/29 09:04:01;;;;;;;3.50;3.30;;;22.40;99.90;;;;;;5006911;28;20724;-68
2023/07/29 09:06:27;;;;;;;3.60;3.30;;;22.70;99.90;;;;;;5006544;28;20196;-68
2023/07/29 09:08:54;;;;;;;3.87;3.57;;;23.00;99.90;;;;;;5007820;28;20192;-67
2023/07/29 09:11:20;;;;;;;3.60;3.30;;;23.00;99.90;;;;;;5000513;28;20248;-67
2023/07/29 09:13:46;;;;;;;3.53;3.23;;;23.10;99.90;;;;;;5007011;28;20196;-67
2023/07/29 09:16:13;;;;;;;3.27;3.07;;;23.20;99.90;;;;;;5016896;28;20218;-67
2023/07/29 09:18:38;;;;;;;5.53;3.60;;;23.20;99.90;;;;;;5014249;28;20218;-68
2023/07/29 09:21:04;;;;;;;3.50;3.30;;;23.20;99.90;;;;;;5014722;28;20227;-68
2023/07/29 09:23:42;;;;;;;3.50;3.03;;;23.20;99.90;;;;;;5022467;28;20657;-68
2023/07/29 09:26:08;;;;;;;3.67;3.23;;;23.20;99.90;;;;;;5003185;28;20218;-69
2023/07/29 09:28:36;;;;;;;3.37;3.17;;;23.30;99.90;;;;;;5002905;28;20196;-68
2023/07/29 09:31:01;;;;;;;3.27;2.70;;;23.30;99.90;;;;;;5004478;28;20567;-68
2023/07/29 09:33:27;;;;;;;3.03;2.83;;;23.50;99.90;;;;;;5008281;28;20669;-72
2023/07/29 09:35:53;;;;;;;2.63;2.53;;;23.50;99.90;;;;;;5005503;28;20258;-73
2023/07/29 09:38:29;;;;;;;3.27;3.07;;;23.70;99.90;;;;;;5006444;28;20220;-69
2023/07/29 09:40:56;;;;;;;3.17;2.77;;;23.70;99.90;;;;;;5012583;28;20229;-73
2023/07/29 09:43:26;;;;;;;3.20;3.00;;;23.60;99.90;;;;;;5010186;28;20191;-75
2023/07/29 09:45:52;;;;;;;3.47;3.27;;;23.70;99.90;;;;;;5010559;28;20204;-75
2023/07/29 09:48:22;;;;;;;3.33;3.13;;;23.70;99.90;;;;;;5006280;28;20195;-77
2023/07/29 09:50:48;;;;;;;4.70;3.33;;;23.80;99.90;;;;;;5011918;28;20214;-75
2023/07/29 09:53:14;;;;;;;3.20;2.90;;;23.80;99.90;;;;;;5006919;28;20223;-72
2023/07/29 09:55:40;;;;;;;3.80;3.50;;;23.80;99.90;;;;;;5000660;28;20203;-75
2023/07/29 09:58:08;;;;;;;2.97;2.77;;;23.70;99.90;;;;;;5005352;28;20245;-69
2023/07/29 10:00:34;;;;;;;3.40;3.10;;;24.00;99.90;;;;;;5009271;28;20227;-75
2023/07/29 10:03:00;;;;;;;2.93;2.73;;;24.00;99.90;;;;;;5013186;28;20278;-81
2023/07/29 10:05:27;;;;;;;3.07;2.77;;;24.30;99.90;;;;;;5009808;28;20204;-75
2023/07/29 10:07:54;;;;;;;3.20;2.77;;;24.40;99.90;;;;;;5037138;23;20227;-75
2023/07/29 10:10:20;;;;;;;2.93;2.73;;;24.40;99.90;;;;;;5034596;28;20202;-75
2023/07/29 10:12:46;;;;;;;3.73;3.37;;;24.30;99.90;;;;;;5032838;28;20210;-75
2023/07/29 10:15:12;;;;;;;2.87;2.67;;;24.40;99.90;;;;;;5024501;28;20190;-76
2023/07/29 10:17:39;;;;;;;2.63;2.50;;;24.40;99.90;;;;;;5020770;28;20219;-75
2023/07/29 10:20:06;;;;;;;2.37;2.27;;;24.20;99.90;;;;;;5022140;28;20276;-76
2023/07/29 10:22:39;;;;;;;3.00;2.47;;;24.30;99.90;;;;;;5020413;28;20210;-76
2023/07/29 10:25:08;;;;;;;2.37;2.17;;;24.00;99.90;;;;;;5020352;28;20195;-76
2023/07/29 10:27:48;;;;;;;2.90;2.60;;;24.10;99.90;;;;;;5018559;28;20590;-76
2023/07/29 10:30:13;;;;;;;3.30;3.00;;;24.10;99.90;;;;;;5012632;28;20198;-77
2023/07/29 10:32:44;;;;;;;3.00;2.70;;;24.00;99.90;;;;;;5019325;28;20699;-75
2023/07/29 10:35:10;;;;;;;4.00;2.80;;;23.90;99.90;;;;;;5022614;28;20656;-76
2023/07/29 10:37:36;;;;;;;3.47;3.27;;;24.00;99.90;;;;;;5019933;28;20711;-76
2023/07/29 10:40:07;;;;;;;3.63;3.10;;;23.80;99.90;;;;;;5020294;28;20350;-76
2023/07/29 10:42:32;;;;;;;10.40;8.37;;;23.70;99.90;;;;;;5005289;28;20215;-75
2023/07/29 10:44:58;;;;;;;3.30;3.10;;;23.70;99.90;;;;;;5005141;28;20553;-76
2023/07/29 10:47:25;;;;;;;3.00;2.70;;;23.70;99.90;;;;;;5023237;28;20199;-74
2023/07/29 10:49:54;;;;;;;2.97;2.77;;;23.90;99.90;;;;;;5024279;28;20211;-74
2023/07/29 10:52:35;;;;;;;3.23;2.50;;;24.00;99.90;;;;;;5023784;28;20302;-75
2023/07/29 10:55:02;;;;;;;3.23;3.00;;;23.90;99.90;;;;;;5025716;28;20191;-75
2023/07/29 10:57:33;;;;;;;3.10;2.90;;;24.00;99.90;;;;;;5019200;28;20199;-74
2023/07/29 10:59:59;;;;;;;2.50;2.30;;;23.90;99.90;;;;;;5019199;28;20199;-75
2023/07/29 11:02:38;;;;;;;2.70;2.50;;;23.90;99.90;;;;;;5023484;28;20214;-75
2023/07/29 11:05:17;;;;;;;3.37;2.27;;;23.80;99.90;;;;;;5025562;28;20183;-75
2023/07/29 11:07:49;;;;;;;2.07;1.97;;;23.70;99.90;;;;;;5022500;28;20237;-76
2023/07/29 11:10:15;;;;;;;2.47;2.30;;;23.70;99.90;;;;;;5025046;28;20672;-73
2023/07/29 11:12:42;;;;;;;10.47;3.03;;;23.30;99.90;;;;;;5010447;28;20214;-72
2023/07/29 11:15:10;;;;;;;4.73;1.77;;;21.70;99.90;;;;;;5012370;28;20196;-75
2023/07/29 11:17:39;;;;;;;4.13;1.33;;;19.60;99.90;;;;;;5022155;28;20218;-71
2023/07/29 11:20:05;;;;;;;1.37;0.63;;;18.70;99.90;;;;;;5009694;28;20216;-70
2023/07/29 11:22:31;;;;;;;1.40;1.23;;;18.60;99.90;;;;;;5017154;28;20711;-71
2023/07/29 11:24:56;;;;;;;1.63;1.20;;;18.80;99.90;;;;;;5019584;28;20295;-70
2023/07/29 11:27:22;;;;;;;1.33;1.23;;;18.90;99.90;;;;;;5023115;28;20200;-69
2023/07/29 11:29:48;;;;;;;1.70;1.43;;;19.00;99.90;;;;;;5024833;28;20186;-69
2023/07/29 11:32:15;;;;;;;1.40;1.10;;;19.20;99.90;;;;;;5022840;28;20208;-70
2023/07/29 11:34:41;;;;;;;1.30;1.20;;;19.40;99.90;;;;;;5025111;28;20268;-69
2023/07/29 11:37:06;;;;;;;3.03;1.40;;;19.50;99.90;;;;;;5005451;28;20202;-70
2023/07/29 11:39:33;;;;;;;3.57;1.60;;;19.60;99.90;;;;;;5024936;28;20544;-69
2023/07/29 11:41:58;;;;;;;1.37;1.10;;;19.80;99.90;;;;;;5020398;28;20202;-68
2023/07/29 11:44:25;;;;;;;1.33;1.23;;;20.00;99.90;;;;;;5019475;28;20236;-69
2023/07/29 11:46:50;;;;;;;2.90;1.60;;;19.90;99.90;;;;;;5015039;28;20895;-69
2023/07/29 11:49:16;;;;;;;3.87;2.07;;;20.00;99.90;;;;;;5007918;28;20236;-70
2023/07/29 11:51:42;;;;;;;3.50;1.60;;;19.90;99.90;;;;;;5010354;28;20216;-69
2023/07/29 11:54:08;;;;;;;4.83;2.03;;;19.80;99.90;;;;;;5019102;28;20209;-69
2023/07/29 11:56:34;;;;;;;3.67;2.53;;;20.00;99.90;;;;;;5013491;28;20275;-68
2023/07/29 11:59:02;;;;;;;2.67;2.43;;;20.00;99.90;;;;;;5014889;28;20616;-61
2023/07/29 12:01:28;;;;;;;5.63;3.07;;;19.90;99.90;;;;;;5016304;28;20204;-72
2023/07/29 12:03:57;;;;;;;2.67;2.47;;;20.00;99.90;;;;;;5014430;28;20715;-71
2023/07/29 12:06:24;;;;;;;3.57;2.80;;;20.10;99.90;;;;;;5020855;28;20197;-77
2023/07/29 12:09:00;;;;;;;4.07;3.67;;;20.20;99.90;;;;;;5014246;28;20221;-61
2023/07/29 12:11:26;;;;;;;6.97;3.73;;;20.30;99.90;;;;;;4997535;28;20191;-61
2023/07/29 12:13:53;;;;;;;6.73;5.03;;;20.30;99.90;;;;;;5000834;28;20232;-61
2023/07/29 12:16:19;;;;;;;5.50;4.40;;;20.30;99.90;;;;;;5000971;28;20202;-61
2023/07/29 12:18:45;;;;;;;4.87;3.83;;;20.40;99.90;;;;;;5005617;28;20202;-62
2023/07/29 12:21:10;;;;;;;5.03;4.07;;;20.40;99.90;;;;;;4998093;28;20224;-61
2023/07/29 12:23:36;;;;;;;4.70;4.23;;;20.50;99.90;;;;;;4998872;28;20193;-61
2023/07/29 12:26:02;;;;;;;6.87;4.13;;;20.60;99.90;;;;;;4998609;28;20202;-61
2023/07/29 12:28:27;;;;;;;4.30;3.90;;;20.40;99.90;;;;;;4998472;28;20274;-61
2023/07/29 12:30:54;;;;;;;4.30;3.80;;;20.40;99.90;;;;;;5008617;28;20239;-62
2023/07/29 12:33:38;;;;;;;4.27;3.97;;;20.40;99.90;;;;;;5007822;28;20667;-76
2023/07/29 12:36:04;;;;;;;4.57;4.17;;;20.30;99.90;;;;;;5000742;28;20223;-65
2023/07/29 12:38:30;;;;;;;4.87;4.47;;;20.50;99.90;;;;;;5000645;28;20195;-67
2023/07/29 12:40:56;;;;;;;5.20;4.80;;;20.40;99.90;;;;;;5005729;28;20289;-73
2023/07/29 12:43:22;;;;;;;5.67;4.63;;;20.60;99.90;;;;;;5009077;28;20203;-68
2023/07/29 12:45:50;;;;;;;5.53;5.03;;;20.70;99.90;;;;;;4995921;28;20208;-64
2023/07/29 12:48:16;;;;;;;5.60;4.73;;;20.70;99.90;;;;;;5008378;28;20199;-64